Time;durP1;ratioP1;P1;durP2;ratioP2;P2;SDS_P1;SDS_P2;PMS_P1;PMS_P2;Temp;Humidity;BMP_temperature;BMP_pressure;BME280_temperature;BME280_humidity;BME280_pressure;Samples;Min_cycle;Max_cycle;Signal;HPM_P1;HPM_P2
2023/05/05 00:01:13;;;;;;;10.07;6.63;;;;;;;;;;5035081;28;20075;-74
2023/05/05 00:03:41;;;;;;;10.20;7.20;;;;;;;;;;5043006;28;20116;-74
2023/05/05 00:06:07;;;;;;;12.48;7.28;;;;;;;;;;5054058;28;20069;-74
2023/05/05 00:08:33;;;;;;;11.90;7.50;;;;;;;;;;5054577;28;20053;-74
2023/05/05 00:10:59;;;;;;;8.32;7.13;;;;;;;;;;5053561;28;20057;-74
2023/05/05 00:13:26;;;;;;;13.27;6.93;;;;;;;;;;5053563;28;20037;-74
2023/05/05 00:15:52;;;;;;;9.45;6.80;;;;;;;;;;5054655;28;20045;-74
2023/05/05 00:18:18;;;;;;;9.82;7.03;;;;;;;;;;5054781;28;20045;-74
2023/05/05 00:20:46;;;;;;;9.90;7.18;;;;;;;;;;5034128;28;20049;-74
2023/05/05 00:23:12;;;;;;;13.07;7.45;;;;;;;;;;5046049;28;20080;-74
2023/05/05 00:25:38;;;;;;;12.32;7.55;;;;;;;;;;5050677;28;20129;-74
2023/05/05 00:28:04;;;;;;;12.68;7.28;;;;;;;;;;5035970;28;20091;-74
2023/05/05 00:30:30;;;;;;;9.95;6.55;;;;;;;;;;5055042;28;20045;-74
2023/05/05 00:32:56;;;;;;;9.77;7.10;;;;;;;;;;5054588;28;20049;-74
2023/05/05 00:35:22;;;;;;;13.85;7.03;;;;;;;;;;5053318;28;20128;-74
2023/05/05 00:37:48;;;;;;;10.32;6.82;;;;;;;;;;5034702;28;20076;-74
2023/05/05 00:40:17;;;;;;;10.27;7.10;;;;;;;;;;5050933;28;20044;-74
2023/05/05 00:42:44;;;;;;;10.32;7.20;;;;;;;;;;5050948;28;20441;-74
2023/05/05 00:45:11;;;;;;;9.30;6.47;;;;;;;;;;5048680;28;20124;-74
2023/05/05 00:47:37;;;;;;;10.85;7.00;;;;;;;;;;5044846;28;20170;-74
2023/05/05 00:50:05;;;;;;;8.63;6.82;;;;;;;;;;5041518;28;20049;-74
2023/05/05 00:52:31;;;;;;;12.38;7.18;;;;;;;;;;5050332;28;20472;-74
2023/05/05 00:54:57;;;;;;;13.75;7.57;;;;;;;;;;5049651;28;20052;-74
2023/05/05 00:57:25;;;;;;;13.55;7.28;;;;;;;;;;5035454;28;20043;-74
2023/05/05 00:59:51;;;;;;;11.10;7.45;;;;;;;;;;5046186;28;20419;-74
2023/05/05 01:02:17;;;;;;;12.68;6.70;;;;;;;;;;5039009;28;20061;-74
2023/05/05 01:04:43;;;;;;;10.68;7.45;;;;;;;;;;5047103;28;20072;-74
2023/05/05 01:07:25;;;;;;;11.93;7.15;;;;;;;;;;5049380;28;20049;-74
2023/05/05 01:10:02;;;;;;;10.93;7.18;;;;;;;;;;5035090;28;20056;-74
2023/05/05 01:12:31;;;;;;;10.57;6.63;;;;;;;;;;5040145;28;22624;-74
2023/05/05 01:15:00;;;;;;;9.80;6.75;;;;;;;;;;5042914;28;20490;-74
2023/05/05 01:17:34;;;;;;;11.23;6.60;;;;;;;;;;5042907;28;20045;-74
2023/05/05 01:20:00;;;;;;;11.90;6.90;;;;;;;;;;5045353;28;20067;-74
2023/05/05 01:22:31;;;;;;;8.85;6.15;;;;;;;;;;5038058;28;20475;-75
2023/05/05 01:25:03;;;;;;;10.82;6.72;;;;;;;;;;5047065;28;20055;-74
2023/05/05 01:27:51;;;;;;;14.10;7.22;;;;;;;;;;5049353;28;20037;-74
2023/05/05 01:30:33;;;;;;;10.93;6.78;;;;;;;;;;5046919;28;20056;-74
2023/05/05 01:33:07;;;;;;;10.15;6.60;;;;;;;;;;5054196;28;20052;-74
2023/05/05 01:35:41;;;;;;;11.27;6.60;;;;;;;;;;5040347;28;20522;-74
2023/05/05 01:38:21;;;;;;;13.93;6.60;;;;;;;;;;5050230;28;20061;-74
2023/05/05 01:40:49;;;;;;;12.88;6.43;;;;;;;;;;5052239;28;20047;-74
2023/05/05 01:43:17;;;;;;;9.55;6.80;;;;;;;;;;5051226;28;20056;-74
2023/05/05 01:45:44;;;;;;;11.95;6.97;;;;;;;;;;5050587;28;20048;-74
2023/05/05 01:48:11;;;;;;;10.95;6.63;;;;;;;;;;5053347;28;20471;-74
2023/05/05 01:50:40;;;;;;;12.82;6.95;;;;;;;;;;5041485;28;20057;-74
2023/05/05 01:53:07;;;;;;;12.65;7.25;;;;;;;;;;5034908;28;20053;-74
2023/05/05 01:55:34;;;;;;;11.65;7.20;;;;;;;;;;5049934;28;20049;-74
2023/05/05 01:58:00;;;;;;;10.70;7.03;;;;;;;;;;5041983;28;20053;-74
2023/05/05 02:00:27;;;;;;;10.85;7.32;;;;;;;;;;5047279;28;20485;-76
2023/05/05 02:02:56;;;;;;;10.27;7.40;;;;;;;;;;5052414;28;20048;-74
2023/05/05 02:05:25;;;;;;;11.88;6.68;;;;;;;;;;5040824;28;20050;-74
2023/05/05 02:07:53;;;;;;;9.98;6.90;;;;;;;;;;5032626;28;20057;-74
2023/05/05 02:10:19;;;;;;;10.50;6.43;;;;;;;;;;5048182;28;20045;-74
2023/05/05 02:12:45;;;;;;;10.68;6.45;;;;;;;;;;5053967;28;20037;-74
2023/05/05 02:15:12;;;;;;;9.70;6.28;;;;;;;;;;5052859;28;20040;-74
2023/05/05 02:17:41;;;;;;;10.32;6.53;;;;;;;;;;5035244;28;20052;-74
2023/05/05 02:20:08;;;;;;;14.30;6.88;;;;;;;;;;5040267;28;20147;-74
2023/05/05 02:22:34;;;;;;;11.13;6.72;;;;;;;;;;5043605;28;20120;-74
2023/05/05 02:25:00;;;;;;;12.07;6.95;;;;;;;;;;5053551;28;20049;-74
2023/05/05 02:27:27;;;;;;;10.57;6.57;;;;;;;;;;5051398;28;20041;-74
2023/05/05 02:29:58;;;;;;;11.07;7.32;;;;;;;;;;5051135;28;20056;-74
2023/05/05 02:32:34;;;;;;;11.05;6.82;;;;;;;;;;5052443;28;20051;-74
2023/05/05 02:35:01;;;;;;;;;;;;;;;;;;5047752;28;20045;-74
2023/05/05 02:37:29;;;;;;;8.95;6.60;;;;;;;;;;5033763;28;19965;-74
2023/05/05 02:40:01;;;;;;;9.05;6.65;;;;;;;;;;5041461;28;20072;-74
2023/05/05 02:42:46;;;;;;;11.70;7.38;;;;;;;;;;5030733;28;20120;-74
2023/05/05 02:45:15;;;;;;;10.75;6.55;;;;;;;;;;5045817;28;20115;-74
2023/05/05 02:47:41;;;;;;;11.25;7.03;;;;;;;;;;5035929;28;20050;-74
2023/05/05 02:50:07;;;;;;;12.95;6.80;;;;;;;;;;5051460;28;20072;-74
2023/05/05 02:52:34;;;;;;;11.65;7.70;;;;;;;;;;5055851;28;20046;-74
2023/05/05 02:55:00;;;;;;;9.25;7.03;;;;;;;;;;5039706;28;20492;-74
2023/05/05 02:57:33;;;;;;;10.40;7.25;;;;;;;;;;5053897;28;20052;-74
2023/05/05 03:00:10;;;;;;;10.20;7.30;;;;;;;;;;5044478;28;20083;-74
2023/05/05 03:02:48;;;;;;;11.38;7.25;;;;;;;;;;5036672;28;20045;-74
2023/05/05 03:05:18;;;;;;;11.25;6.85;;;;;;;;;;5029848;28;20080;-74
2023/05/05 03:07:50;;;;;;;12.52;7.57;;;;;;;;;;5050237;28;20494;-74
2023/05/05 03:10:19;;;;;;;11.20;7.65;;;;;;;;;;5061840;28;20053;-75
2023/05/05 03:12:52;;;;;;;10.80;6.85;;;;;;;;;;5054583;28;20033;-74
2023/05/05 03:15:19;;;;;;;11.02;6.85;;;;;;;;;;5046686;28;20048;-74
2023/05/05 03:17:45;;;;;;;13.32;7.50;;;;;;;;;;5046018;28;20064;-74
2023/05/05 03:20:12;;;;;;;13.77;7.68;;;;;;;;;;5056321;28;20091;-74
2023/05/05 03:22:38;;;;;;;10.75;6.93;;;;;;;;;;5040854;28;20491;-74
2023/05/05 03:25:05;;;;;;;11.30;7.18;;;;;;;;;;5055343;28;20041;-74
2023/05/05 03:27:31;;;;;;;11.77;7.18;;;;;;;;;;5054259;28;20052;-74
2023/05/05 03:29:57;;;;;;;11.68;7.60;;;;;;;;;;5038890;28;20045;-74
2023/05/05 03:32:23;;;;;;;10.50;7.55;;;;;;;;;;5054121;28;20081;-74
2023/05/05 03:34:49;;;;;;;10.95;7.30;;;;;;;;;;5040388;28;20064;-74
2023/05/05 03:37:15;;;;;;;10.90;7.53;;;;;;;;;;5055264;28;20080;-74
2023/05/05 03:39:42;;;;;;;10.10;7.30;;;;;;;;;;5055076;28;20045;-74
2023/05/05 03:42:08;;;;;;;9.45;7.30;;;;;;;;;;5038175;28;20045;-74
2023/05/05 03:44:34;;;;;;;12.05;7.63;;;;;;;;;;5055895;28;20037;-74
2023/05/05 03:47:00;;;;;;;13.35;7.22;;;;;;;;;;5045559;28;20073;-74
2023/05/05 03:49:26;;;;;;;11.20;7.50;;;;;;;;;;5036288;28;20046;-74
2023/05/05 03:51:52;;;;;;;11.90;6.97;;;;;;;;;;5056745;28;20048;-74
2023/05/05 03:54:18;;;;;;;12.45;7.57;;;;;;;;;;5056733;28;20048;-74
2023/05/05 03:56:44;;;;;;;9.68;7.30;;;;;;;;;;5029966;28;20099;-75
2023/05/05 03:59:10;;;;;;;11.50;7.65;;;;;;;;;;5054179;28;20123;-74
2023/05/05 04:01:36;;;;;;;9.75;7.50;;;;;;;;;;5038653;28;20139;-74
2023/05/05 04:04:02;;;;;;;9.85;7.32;;;;;;;;;;5053797;28;20060;-74
2023/05/05 04:06:28;;;;;;;9.57;7.50;;;;;;;;;;5038013;28;20088;-74
2023/05/05 04:08:54;;;;;;;10.40;7.75;;;;;;;;;;5056271;28;20119;-74
2023/05/05 04:11:20;;;;;;;12.45;8.30;;;;;;;;;;5051161;28;20037;-74
2023/05/05 04:13:48;;;;;;;12.20;8.32;;;;;;;;;;5051910;28;20048;-74
2023/05/05 04:16:14;;;;;;;11.80;8.85;;;;;;;;;;5055442;28;20099;-74
2023/05/05 04:18:41;;;;;;;13.95;8.18;;;;;;;;;;5055911;28;20045;-74
2023/05/05 04:21:07;;;;;;;14.75;8.40;;;;;;;;;;5052565;28;20049;-74
2023/05/05 04:23:33;;;;;;;11.55;8.18;;;;;;;;;;5042496;28;20056;-73
2023/05/05 04:25:59;;;;;;;13.43;8.20;;;;;;;;;;5053303;28;20037;-73
2023/05/05 04:28:25;;;;;;;13.48;8.48;;;;;;;;;;5054282;28;20033;-73
2023/05/05 04:30:51;;;;;;;11.80;8.73;;;;;;;;;;5055417;28;20040;-73
2023/05/05 04:33:17;;;;;;;15.75;8.63;;;;;;;;;;5055079;28;20052;-72
2023/05/05 04:35:43;;;;;;;16.60;10.00;;;;;;;;;;5049960;28;20077;-73
2023/05/05 04:38:09;;;;;;;15.73;9.38;;;;;;;;;;5034208;28;20046;-73
2023/05/05 04:40:38;;;;;;;12.82;8.80;;;;;;;;;;5045740;28;20040;-72
2023/05/05 04:43:05;;;;;;;16.65;9.20;;;;;;;;;;5055414;28;20436;-72
2023/05/05 04:45:31;;;;;;;13.63;9.55;;;;;;;;;;5045473;28;20130;-72
2023/05/05 04:47:57;;;;;;;15.57;9.38;;;;;;;;;;5052445;28;20051;-71
2023/05/05 04:50:24;;;;;;;14.15;9.23;;;;;;;;;;5052204;28;20041;-72
2023/05/05 04:52:50;;;;;;;12.80;8.60;;;;;;;;;;5031770;28;20073;-73
2023/05/05 04:55:16;;;;;;;17.83;9.75;;;;;;;;;;5021417;28;20120;-73
2023/05/05 04:57:42;;;;;;;13.68;8.40;;;;;;;;;;5055388;28;20091;-73
2023/05/05 05:00:08;;;;;;;14.77;8.57;;;;;;;;;;5042799;28;20077;-74
2023/05/05 05:02:36;;;;;;;13.68;8.52;;;;;;;;;;5054659;28;20044;-73
2023/05/05 05:05:02;;;;;;;11.77;7.78;;;;;;;;;;5037233;28;20057;-74
2023/05/05 05:07:28;;;;;;;10.63;8.48;;;;;;;;;;5056565;28;20053;-74
2023/05/05 05:09:54;;;;;;;14.93;8.60;;;;;;;;;;5040095;28;20049;-74
2023/05/05 05:12:20;;;;;;;11.13;8.70;;;;;;;;;;5052782;28;20049;-74
2023/05/05 05:14:46;;;;;;;14.85;8.82;;;;;;;;;;5039625;28;20045;-74
2023/05/05 05:17:12;;;;;;;12.93;8.35;;;;;;;;;;5034806;28;20052;-74
2023/05/05 05:19:38;;;;;;;13.82;8.38;;;;;;;;;;5051206;28;20143;-74
2023/05/05 05:22:04;;;;;;;14.35;9.00;;;;;;;;;;5049030;28;20134;-74
2023/05/05 05:24:30;;;;;;;13.82;9.20;;;;;;;;;;5056623;28;20072;-74
2023/05/05 05:26:57;;;;;;;17.10;8.73;;;;;;;;;;5036114;28;20048;-74
2023/05/05 05:29:23;;;;;;;16.02;9.45;;;;;;;;;;5054373;28;20123;-74
2023/05/05 05:31:49;;;;;;;14.15;9.50;;;;;;;;;;5052407;28;20045;-75
2023/05/05 05:34:15;;;;;;;14.18;9.00;;;;;;;;;;5047064;28;20048;-75
2023/05/05 05:36:41;;;;;;;13.02;8.68;;;;;;;;;;5052341;28;20045;-75
2023/05/05 05:39:07;;;;;;;12.20;8.48;;;;;;;;;;5052818;28;20052;-75
2023/05/05 05:41:33;;;;;;;13.95;8.55;;;;;;;;;;5050571;28;20059;-75
2023/05/05 05:43:59;;;;;;;13.00;8.68;;;;;;;;;;5033306;28;20045;-75
2023/05/05 05:46:25;;;;;;;14.23;9.43;;;;;;;;;;5026353;28;20052;-75
2023/05/05 05:48:52;;;;;;;13.25;8.40;;;;;;;;;;5034626;28;20041;-75
2023/05/05 05:51:18;;;;;;;12.75;8.90;;;;;;;;;;5049391;28;20548;-75
2023/05/05 05:53:44;;;;;;;14.05;8.98;;;;;;;;;;5051448;28;20475;-75
2023/05/05 05:56:10;;;;;;;12.27;9.00;;;;;;;;;;5033163;28;20087;-75
2023/05/05 05:58:36;;;;;;;11.85;9.23;;;;;;;;;;5047315;28;20037;-75
2023/05/05 06:01:03;;;;;;;13.77;8.68;;;;;;;;;;5043426;28;20041;-75
2023/05/05 06:03:30;;;;;;;11.00;8.63;;;;;;;;;;5049631;28;20175;-77
2023/05/05 06:05:57;;;;;;;16.08;9.90;;;;;;;;;;5039502;28;20049;-75
2023/05/05 06:08:24;;;;;;;11.85;8.27;;;;;;;;;;5062832;28;20072;-75
2023/05/05 06:10:50;;;;;;;10.48;8.70;;;;;;;;;;5054682;28;20142;-75
2023/05/05 06:13:16;;;;;;;12.27;8.75;;;;;;;;;;5069559;28;20041;-75
2023/05/05 06:15:42;;;;;;;12.43;9.05;;;;;;;;;;5035037;28;20045;-75
2023/05/05 06:18:08;;;;;;;11.82;8.93;;;;;;;;;;5034644;28;20124;-75
2023/05/05 06:20:34;;;;;;;13.35;9.00;;;;;;;;;;5032655;28;20052;-74
2023/05/05 06:23:00;;;;;;;12.32;9.05;;;;;;;;;;5055475;28;20044;-75
2023/05/05 06:25:26;;;;;;;10.68;7.53;;;;;;;;;;5039760;28;20041;-75
2023/05/05 06:27:52;;;;;;;12.82;8.85;;;;;;;;;;5038827;28;20048;-75
2023/05/05 06:30:18;;;;;;;10.25;8.00;;;;;;;;;;5039018;28;20045;-75
2023/05/05 06:32:44;;;;;;;11.73;8.40;;;;;;;;;;5031733;28;20048;-75
2023/05/05 06:35:10;;;;;;;11.35;8.93;;;;;;;;;;5051506;28;20123;-75
2023/05/05 06:37:36;;;;;;;9.60;8.07;;;;;;;;;;5031771;28;20044;-75
2023/05/05 06:40:03;;;;;;;10.27;7.68;;;;;;;;;;5040747;28;20057;-75
2023/05/05 06:42:30;;;;;;;11.63;8.15;;;;;;;;;;5058138;28;20045;-75
2023/05/05 06:44:57;;;;;;;10.38;7.75;;;;;;;;;;5062719;28;20044;-75
2023/05/05 06:47:23;;;;;;;10.18;7.65;;;;;;;;;;5065189;28;20564;-75
2023/05/05 06:49:49;;;;;;;11.35;7.60;;;;;;;;;;5056040;28;20045;-74
2023/05/05 06:52:15;;;;;;;10.25;7.65;;;;;;;;;;5065436;28;20040;-74
2023/05/05 06:54:41;;;;;;;10.98;7.85;;;;;;;;;;5065050;28;20051;-74
2023/05/05 06:57:07;;;;;;;10.50;7.13;;;;;;;;;;5050682;28;20056;-74
2023/05/05 06:59:33;;;;;;;10.93;7.82;;;;;;;;;;5019017;28;20040;-74
2023/05/05 07:01:59;;;;;;;9.95;8.23;;;;;;;;;;5047283;28;20467;-74
2023/05/05 07:04:25;;;;;;;11.63;7.80;;;;;;;;;;5054033;28;20052;-74
2023/05/05 07:06:51;;;;;;;11.27;8.02;;;;;;;;;;5067864;28;20128;-74
2023/05/05 07:09:19;;;;;;;10.25;8.25;;;;;;;;;;5058897;28;20094;-74
2023/05/05 07:11:45;;;;;;;13.35;8.68;;;;;;;;;;5051829;28;20049;-74
2023/05/05 07:14:11;;;;;;;11.20;8.50;;;;;;;;;;5040314;28;20040;-74
2023/05/05 07:16:38;;;;;;;11.00;8.77;;;;;;;;;;5070420;28;20105;-77
2023/05/05 07:19:05;;;;;;;12.00;8.60;;;;;;;;;;5052690;28;20044;-74
2023/05/05 07:21:31;;;;;;;12.55;8.43;;;;;;;;;;5071573;28;20150;-74
2023/05/05 07:23:57;;;;;;;11.77;8.55;;;;;;;;;;5053176;28;20060;-74
2023/05/05 07:26:23;;;;;;;11.63;8.73;;;;;;;;;;5035905;28;20502;-74
2023/05/05 07:28:50;;;;;;;10.98;8.57;;;;;;;;;;5039030;28;20558;-74
2023/05/05 07:31:18;;;;;;;11.30;8.65;;;;;;;;;;5050327;28;20057;-74
2023/05/05 07:33:45;;;;;;;11.20;8.57;;;;;;;;;;5065114;28;20052;-74
2023/05/05 07:36:11;;;;;;;13.32;9.25;;;;;;;;;;5063835;28;20040;-74
2023/05/05 07:38:37;;;;;;;13.45;9.32;;;;;;;;;;5058733;28;20071;-74
2023/05/05 07:41:03;;;;;;;12.07;8.65;;;;;;;;;;5035189;28;20055;-73
2023/05/05 07:43:29;;;;;;;12.65;9.05;;;;;;;;;;5063906;28;20064;-73
2023/05/05 07:45:55;;;;;;;11.82;8.90;;;;;;;;;;5067499;28;20052;-74
2023/05/05 07:48:21;;;;;;;12.57;9.13;;;;;;;;;;5078278;28;20032;-74
2023/05/05 07:50:47;;;;;;;10.55;8.93;;;;;;;;;;5061413;28;20044;-74
2023/05/05 07:53:13;;;;;;;12.15;9.65;;;;;;;;;;5038449;28;20041;-74
2023/05/05 07:55:40;;;;;;;11.52;9.25;;;;;;;;;;5038724;28;20045;-74
2023/05/05 07:58:06;;;;;;;11.25;9.85;;;;;;;;;;5072496;28;20044;-74
2023/05/05 08:00:32;;;;;;;10.88;9.75;;;;;;;;;;5045785;28;20052;-73
2023/05/05 08:02:58;;;;;;;12.20;10.27;;;;;;;;;;5075567;28;20044;-74
2023/05/05 08:05:24;;;;;;;13.15;10.48;;;;;;;;;;5031250;28;20051;-74
2023/05/05 08:07:50;;;;;;;14.60;10.23;;;;;;;;;;5057088;28;20388;-75
2023/05/05 08:10:16;;;;;;;14.15;10.23;;;;;;;;;;5062738;28;20048;-75
2023/05/05 08:12:43;;;;;;;13.98;10.85;;;;;;;;;;5073652;28;20114;-76
2023/05/05 08:15:09;;;;;;;15.50;10.88;;;;;;;;;;5076344;28;20049;-76
2023/05/05 08:17:48;;;;;;;15.07;11.20;;;;;;;;;;5077904;28;20041;-79
2023/05/05 08:20:15;;;;;;;14.45;11.70;;;;;;;;;;5071565;28;20086;-77
2023/05/05 08:22:41;;;;;;;15.20;11.05;;;;;;;;;;5055557;28;20041;-75
2023/05/05 08:25:09;;;;;;;12.90;10.82;;;;;;;;;;5061499;28;20044;-74
2023/05/05 08:27:36;;;;;;;13.90;11.40;;;;;;;;;;5055770;28;20376;-74
2023/05/05 08:30:03;;;;;;;13.95;11.02;;;;;;;;;;5073588;28;20036;-74
2023/05/05 08:32:29;;;;;;;13.77;11.68;;;;;;;;;;5064116;28;20411;-74
2023/05/05 08:34:55;;;;;;;14.77;11.25;;;;;;;;;;5049024;28;20071;-74
2023/05/05 08:37:21;;;;;;;14.77;12.10;;;;;;;;;;5048917;28;20140;-74
2023/05/05 08:39:47;;;;;;;13.85;11.68;;;;;;;;;;5046800;28;20507;-74
2023/05/05 08:42:13;;;;;;;14.98;11.82;;;;;;;;;;5065835;28;20072;-74
2023/05/05 08:44:39;;;;;;;15.02;11.60;;;;;;;;;;5047972;28;20051;-74
2023/05/05 08:47:07;;;;;;;16.73;13.13;;;;;;;;;;5064857;28;20068;-74
2023/05/05 08:49:39;;;;;;;17.83;12.02;;;;;;;;;;5064522;28;20048;-74
2023/05/05 08:52:08;;;;;;;14.20;11.35;;;;;;;;;;5035273;28;20444;-74
2023/05/05 08:54:36;;;;;;;15.63;12.02;;;;;;;;;;5063590;28;20467;-74
2023/05/05 08:57:02;;;;;;;15.18;12.27;;;;;;;;;;5047204;28;20040;-74
2023/05/05 08:59:31;;;;;;;15.60;12.48;;;;;;;;;;5067696;28;20036;-74
2023/05/05 09:01:58;;;;;;;15.60;12.45;;;;;;;;;;5053271;28;20088;-74
2023/05/05 09:04:24;;;;;;;16.77;13.30;;;;;;;;;;5045155;28;20055;-74
2023/05/05 09:06:50;;;;;;;14.90;12.73;;;;;;;;;;5053648;28;20114;-74
2023/05/05 09:09:16;;;;;;;15.35;13.25;;;;;;;;;;5059952;28;20079;-74
2023/05/05 09:11:43;;;;;;;14.93;12.95;;;;;;;;;;5057336;28;20041;-74
2023/05/05 09:14:09;;;;;;;16.17;13.60;;;;;;;;;;5072097;28;20119;-74
2023/05/05 09:16:35;;;;;;;19.33;12.88;;;;;;;;;;5073124;28;20115;-74
2023/05/05 09:19:02;;;;;;;16.77;13.02;;;;;;;;;;5041555;28;20044;-75
2023/05/05 09:21:28;;;;;;;16.50;12.73;;;;;;;;;;5076384;28;20040;-74
2023/05/05 09:24:07;;;;;;;17.90;14.13;;;;;;;;;;5071327;28;20049;-75
2023/05/05 09:26:34;;;;;;;16.42;12.32;;;;;;;;;;5066202;28;20109;-76
2023/05/05 09:29:01;;;;;;;14.38;12.05;;;;;;;;;;5056466;28;20128;-77
2023/05/05 09:31:27;;;;;;;14.85;12.98;;;;;;;;;;5057945;28;20071;-76
2023/05/05 09:33:54;;;;;;;17.45;13.02;;;;;;;;;;5062438;28;20041;-76
2023/05/05 09:36:40;;;;;;;16.15;12.93;;;;;;;;;;5059814;28;20119;-76
2023/05/05 09:39:07;;;;;;;15.73;12.77;;;;;;;;;;5060647;28;20049;-76
2023/05/05 09:41:39;;;;;;;15.70;12.88;;;;;;;;;;5059334;28;20115;-79
2023/05/05 09:44:06;;;;;;;19.92;14.77;;;;;;;;;;5050718;28;20048;-77
2023/05/05 09:46:32;;;;;;;19.90;15.55;;;;;;;;;;5067948;28;20045;-76
2023/05/05 09:49:11;;;;;;;19.58;15.38;;;;;;;;;;5064811;28;20433;-76
2023/05/05 09:51:37;;;;;;;21.40;16.40;;;;;;;;;;5059439;28;20045;-76
2023/05/05 09:54:03;;;;;;;20.45;16.38;;;;;;;;;;5035499;28;20132;-76
2023/05/05 09:56:38;;;;;;;23.80;18.42;;;;;;;;;;5063374;28;20093;-76
2023/05/05 09:59:10;;;;;;;28.23;19.42;;;;;;;;;;5059333;28;20079;-76
2023/05/05 10:01:37;;;;;;;24.92;19.45;;;;;;;;;;5047534;28;20049;-76
2023/05/05 10:04:04;;;;;;;23.95;17.15;;;;;;;;;;5056112;28;20076;-76
2023/05/05 10:06:40;;;;;;;24.45;17.83;;;;;;;;;;5050399;28;20110;-76
2023/05/05 10:09:06;;;;;;;21.77;16.75;;;;;;;;;;5036673;28;20098;-76
2023/05/05 10:11:33;;;;;;;22.42;17.05;;;;;;;;;;5042416;28;20048;-76
2023/05/05 10:14:00;;;;;;;24.52;17.25;;;;;;;;;;5044913;28;20037;-77
2023/05/05 10:16:27;;;;;;;19.90;16.65;;;;;;;;;;5054088;28;20037;-76
2023/05/05 10:18:54;;;;;;;18.05;14.93;;;;;;;;;;5038956;28;20048;-76
2023/05/05 10:21:20;;;;;;;20.77;15.05;;;;;;;;;;5056152;28;20036;-76
2023/05/05 10:23:58;;;;;;;18.10;14.93;;;;;;;;;;5043802;28;20041;-76
2023/05/05 10:26:26;;;;;;;17.77;14.57;;;;;;;;;;5056609;28;20055;-76
2023/05/05 10:28:56;;;;;;;16.52;12.70;;;;;;;;;;5052024;28;20048;-76
2023/05/05 10:31:48;;;;;;;14.80;11.88;;;;;;;;;;5028274;28;20048;-76
2023/05/05 10:34:24;;;;;;;17.70;13.25;;;;;;;;;;5023249;28;20270;-76
2023/05/05 10:36:50;;;;;;;;;;;;;;;;;;5049998;28;20072;-76
2023/05/05 10:39:18;;;;;;;13.50;10.55;;;;;;;;;;5037592;28;19975;-76
2023/05/05 10:41:46;;;;;;;13.52;10.52;;;;;;;;;;5030954;28;20479;-76
2023/05/05 10:44:13;;;;;;;10.60;6.68;;;;;;;;;;5034629;28;20038;-75
2023/05/05 10:46:39;;;;;;;7.65;3.92;;;;;;;;;;5031282;28;20045;-76
2023/05/05 10:49:27;;;;;;;8.43;4.88;;;;;;;;;;5020534;28;20056;-76
2023/05/05 10:51:56;;;;;;;8.13;5.05;;;;;;;;;;5029500;28;20082;-79
2023/05/05 10:54:28;;;;;;;8.20;5.93;;;;;;;;;;5054252;28;20037;-76
2023/05/05 10:56:54;;;;;;;8.70;6.65;;;;;;;;;;5053092;28;20053;-75
2023/05/05 10:59:36;;;;;;;7.55;5.82;;;;;;;;;;5047746;28;20037;-76
2023/05/05 11:02:18;;;;;;;9.27;5.85;;;;;;;;;;5041618;28;20056;-76
2023/05/05 11:05:02;;;;;;;9.65;6.25;;;;;;;;;;5041799;28;20133;-76
2023/05/05 11:07:28;;;;;;;7.75;6.32;;;;;;;;;;5058261;28;20053;-76
2023/05/05 11:10:00;;;;;;;9.82;7.20;;;;;;;;;;5076005;28;20053;-76
2023/05/05 11:12:26;;;;;;;10.82;7.10;;;;;;;;;;5070935;28;20116;-77
2023/05/05 11:15:11;;;;;;;11.63;7.53;;;;;;;;;;5073100;28;20042;-77
2023/05/05 11:17:46;;;;;;;8.38;6.78;;;;;;;;;;5060195;28;20041;-77
2023/05/05 11:20:12;;;;;;;11.75;7.25;;;;;;;;;;5073700;28;20463;-76
2023/05/05 11:22:57;;;;;;;9.80;7.28;;;;;;;;;;5076863;28;20052;-76
2023/05/05 11:25:35;;;;;;;10.07;7.25;;;;;;;;;;5068330;28;20045;-76
2023/05/05 11:28:09;;;;;;;11.85;7.68;;;;;;;;;;5061375;28;20072;-76
2023/05/05 11:30:53;;;;;;;9.68;7.47;;;;;;;;;;5062359;28;20505;-77
2023/05/05 11:33:38;;;;;;;8.70;6.82;;;;;;;;;;5057032;28;20037;-76
2023/05/05 11:36:06;;;;;;;10.80;7.68;;;;;;;;;;5059984;28;20049;-76
2023/05/05 11:38:51;;;;;;;10.40;7.10;;;;;;;;;;5073275;28;20040;-77
2023/05/05 11:41:32;;;;;;;9.38;6.22;;;;;;;;;;5051016;28;20079;-76
2023/05/05 11:44:18;;;;;;;10.43;6.78;;;;;;;;;;5042903;28;20041;-77
2023/05/05 11:46:50;;;;;;;9.60;6.53;;;;;;;;;;5051106;28;20048;-76
2023/05/05 11:49:32;;;;;;;9.23;7.00;;;;;;;;;;5056393;28;20051;-80
2023/05/05 11:52:02;;;;;;;12.05;8.93;;;;;;;;;;5076348;28;20055;-76
2023/05/05 11:54:28;;;;;;;18.35;10.75;;;;;;;;;;5058074;28;20037;-76
2023/05/05 11:56:56;;;;;;;13.88;9.90;;;;;;;;;;5070622;28;20490;-76
2023/05/05 11:59:22;;;;;;;15.82;10.98;;;;;;;;;;5048629;28;20379;-77
2023/05/05 12:01:48;;;;;;;14.30;10.77;;;;;;;;;;5051683;28;20097;-77
2023/05/05 12:04:15;;;;;;;15.05;10.00;;;;;;;;;;5037748;28;20052;-77
2023/05/05 12:06:41;;;;;;;13.85;10.05;;;;;;;;;;5039922;28;20052;-76
2023/05/05 12:09:15;;;;;;;13.98;10.10;;;;;;;;;;5058716;28;20115;-76
2023/05/05 12:11:54;;;;;;;12.75;9.38;;;;;;;;;;5056339;28;20048;-76
2023/05/05 12:14:20;;;;;;;12.48;8.90;;;;;;;;;;5064837;28;20115;-76
2023/05/05 12:16:56;;;;;;;15.13;9.00;;;;;;;;;;5053327;28;20452;-77
2023/05/05 12:19:22;;;;;;;12.55;9.23;;;;;;;;;;5062216;28;20064;-76
2023/05/05 12:21:49;;;;;;;12.65;9.05;;;;;;;;;;5065529;28;20048;-77
2023/05/05 12:24:15;;;;;;;11.63;8.70;;;;;;;;;;5063269;28;20432;-77
2023/05/05 12:26:41;;;;;;;11.88;8.73;;;;;;;;;;5043377;28;20044;-76
2023/05/05 12:29:07;;;;;;;14.35;9.55;;;;;;;;;;5066238;28;20127;-76
2023/05/05 12:31:37;;;;;;;14.20;9.07;;;;;;;;;;5075324;28;20070;-76
2023/05/05 12:34:03;;;;;;;10.63;8.63;;;;;;;;;;5067569;28;20040;-76
2023/05/05 12:36:30;;;;;;;11.40;8.27;;;;;;;;;;5063961;28;20140;-76
2023/05/05 12:38:56;;;;;;;13.70;8.40;;;;;;;;;;5062046;28;20045;-76
2023/05/05 12:41:22;;;;;;;12.55;8.73;;;;;;;;;;5044587;28;20072;-76
2023/05/05 12:43:53;;;;;;;14.88;9.73;;;;;;;;;;5057375;28;20045;-76
2023/05/05 12:46:19;;;;;;;13.80;9.85;;;;;;;;;;5066910;28;20375;-76
2023/05/05 12:48:46;;;;;;;14.13;9.20;;;;;;;;;;5056454;28;20406;-76
2023/05/05 12:51:16;;;;;;;10.40;9.30;;;;;;;;;;5075146;28;20041;-76
2023/05/05 12:53:42;;;;;;;12.55;9.30;;;;;;;;;;5055833;28;20060;-77
2023/05/05 12:56:27;;;;;;;13.05;9.20;;;;;;;;;;5055787;28;20037;-76
2023/05/05 12:58:54;;;;;;;14.77;10.00;;;;;;;;;;5025140;28;20049;-76
2023/05/05 13:01:20;;;;;;;13.57;9.77;;;;;;;;;;5062584;28;20045;-76
2023/05/05 13:03:46;;;;;;;14.23;10.00;;;;;;;;;;5070571;28;20118;-76
2023/05/05 13:06:19;;;;;;;13.77;10.20;;;;;;;;;;5062096;28;20048;-76
2023/05/05 13:08:46;;;;;;;15.27;10.70;;;;;;;;;;5064119;28;20076;-76
2023/05/05 13:11:12;;;;;;;15.52;11.57;;;;;;;;;;5063018;28;20045;-76
2023/05/05 13:13:38;;;;;;;16.08;11.77;;;;;;;;;;5073313;28;20032;-76
2023/05/05 13:16:04;;;;;;;18.60;11.18;;;;;;;;;;5070102;28;20044;-76
2023/05/05 13:18:30;;;;;;;13.57;10.32;;;;;;;;;;5071807;28;20063;-76
2023/05/05 13:20:56;;;;;;;15.10;11.02;;;;;;;;;;5067585;28;20399;-76
2023/05/05 13:23:22;;;;;;;14.60;11.45;;;;;;;;;;5064820;28;20069;-78
2023/05/05 13:25:48;;;;;;;16.77;11.32;;;;;;;;;;5061072;28;20037;-76
2023/05/05 13:28:14;;;;;;;14.65;11.65;;;;;;;;;;5060578;28;20120;-76
2023/05/05 13:30:41;;;;;;;16.33;10.80;;;;;;;;;;5056735;28;20072;-76
2023/05/05 13:33:07;;;;;;;18.70;11.25;;;;;;;;;;5068870;28;20083;-76
2023/05/05 13:35:33;;;;;;;14.85;11.38;;;;;;;;;;5068375;28;20036;-76
2023/05/05 13:37:59;;;;;;;15.93;10.90;;;;;;;;;;5066292;28;20044;-76
2023/05/05 13:40:25;;;;;;;10.35;8.05;;;;;;;;;;5056407;28;20120;-76
2023/05/05 13:42:51;;;;;;;12.88;8.05;;;;;;;;;;5070886;28;20052;-76
2023/05/05 13:45:18;;;;;;;9.30;7.28;;;;;;;;;;5053655;28;20045;-76
2023/05/05 13:47:45;;;;;;;9.38;7.43;;;;;;;;;;5070635;28;20041;-78
2023/05/05 13:50:11;;;;;;;10.00;7.20;;;;;;;;;;5079314;28;20044;-77
2023/05/05 13:52:37;;;;;;;10.60;7.38;;;;;;;;;;5034673;28;20037;-78
2023/05/05 13:55:03;;;;;;;10.52;8.05;;;;;;;;;;5043067;28;20121;-76
2023/05/05 13:57:30;;;;;;;11.48;7.75;;;;;;;;;;5073523;28;20080;-79
2023/05/05 13:59:56;;;;;;;10.65;7.60;;;;;;;;;;5056339;28;20048;-76
2023/05/05 14:02:22;;;;;;;9.25;7.55;;;;;;;;;;5039502;28;20515;-76
2023/05/05 14:04:48;;;;;;;10.35;7.47;;;;;;;;;;5029993;28;20049;-77
2023/05/05 14:07:14;;;;;;;10.77;8.10;;;;;;;;;;5052926;28;20122;-77
2023/05/05 14:09:42;;;;;;;9.15;7.57;;;;;;;;;;5054617;28;20048;-76
2023/05/05 14:12:08;;;;;;;9.82;8.23;;;;;;;;;;5044310;28;20079;-74
2023/05/05 14:14:34;;;;;;;9.85;8.07;;;;;;;;;;5063225;28;20045;-74
2023/05/05 14:17:01;;;;;;;10.73;7.32;;;;;;;;;;5063015;28;20041;-74
2023/05/05 14:19:27;;;;;;;10.93;7.97;;;;;;;;;;5053679;28;20049;-74
2023/05/05 14:21:53;;;;;;;8.80;7.82;;;;;;;;;;5055937;28;20048;-74
2023/05/05 14:24:19;;;;;;;11.65;8.50;;;;;;;;;;5063411;28;20036;-74
2023/05/05 14:26:45;;;;;;;9.02;8.13;;;;;;;;;;5056809;28;20076;-74
2023/05/05 14:29:11;;;;;;;10.20;8.20;;;;;;;;;;5072385;28;20037;-74
2023/05/05 14:31:37;;;;;;;11.00;8.02;;;;;;;;;;5061877;28;20135;-74
2023/05/05 14:34:03;;;;;;;9.75;8.40;;;;;;;;;;5074566;28;20099;-74